Time,TemperatureF,DewpointF,PressureIn,WindDirection,WindDirectionDegrees,WindSpeedMPH,WindSpeedGustMPH,Humidity,HourlyPrecipIn,Conditions,Clouds,dailyrainin,SoftwareType,DateUTC
2015-08-30 00:02:00,79.5,71.6,30.04,South,169,2.0,7.0,77,0.00,,,0.00,meteohub,2015-08-30 05:02:00,
2015-08-30 00:06:00,79.5,71.6,30.04,South,169,3.0,7.0,77,0.00,,,0.00,meteohub,2015-08-30 05:06:00,
2015-08-30 00:11:00,79.3,72.0,30.04,South,172,0.0,7.0,78,0.00,,,0.00,meteohub,2015-08-30 05:11:00,
2015-08-30 00:16:00,79.3,72.0,30.04,South,178,0.0,7.0,78,0.00,,,0.00,meteohub,2015-08-30 05:16:00,
2015-08-30 00:21:00,79.3,71.4,30.04,South,177,4.0,8.0,77,0.00,,,0.00,meteohub,2015-08-30 05:21:00,
2015-08-30 00:26:00,79.0,71.6,30.04,South,172,0.0,8.0,78,0.00,,,0.00,meteohub,2015-08-30 05:26:00,
2015-08-30 00:31:00,79.0,71.6,30.04,SSW,194,2.0,7.0,78,0.00,,,0.00,meteohub,2015-08-30 05:31:00,
2015-08-30 00:36:00,79.2,71.8,30.03,SSW,194,0.0,7.0,78,0.00,,,0.00,meteohub,2015-08-30 05:36:00,
2015-08-30 00:41:00,79.2,71.8,30.03,SSW,206,0.0,7.0,78,0.00,,,0.00,meteohub,2015-08-30 05:41:00,
2015-08-30 00:46:00,79.0,71.6,30.04,SSW,206,0.0,6.0,78,0.00,,,0.00,meteohub,2015-08-30 05:46:00,
2015-08-30 00:51:00,78.6,71.6,30.04,SSW,206,0.0,6.0,79,0.00,,,0.00,meteohub,2015-08-30 05:51:00,
2015-08-30 00:56:00,78.3,71.2,30.04,SSW,206,0.0,0.0,79,0.00,,,0.00,meteohub,2015-08-30 05:56:00,
2015-08-30 01:01:00,77.9,70.9,30.04,SSW,206,0.0,0.0,79,0.00,,,0.00,meteohub,2015-08-30 06:01:00,
2015-08-30 01:06:00,77.5,70.9,30.04,SSW,206,0.0,1.0,80,0.00,,,0.00,meteohub,2015-08-30 06:06:00,
2015-08-30 01:11:00,77.4,71.1,30.04,SSW,206,0.0,1.0,81,0.00,,,0.00,meteohub,2015-08-30 06:11:00,
2015-08-30 01:16:00,77.4,71.4,30.04,SSW,206,0.0,1.0,82,0.00,,,0.00,meteohub,2015-08-30 06:16:00,
2015-08-30 01:21:00,77.4,71.4,30.04,SSW,206,0.0,0.0,82,0.00,,,0.00,meteohub,2015-08-30 06:21:00,
2015-08-30 01:31:00,76.8,70.9,30.04,SSW,206,0.0,0.0,82,0.00,,,0.00,meteohub,2015-08-30 06:31:00,
2015-08-30 01:36:00,76.6,70.7,30.04,SSW,206,0.0,0.0,82,0.00,,,0.00,meteohub,2015-08-30 06:36:00,
2015-08-30 01:41:00,76.6,71.1,30.03,SSW,206,0.0,0.0,83,0.00,,,0.00,meteohub,2015-08-30 06:41:00,
2015-08-30 01:46:00,76.3,70.7,30.03,SSW,206,0.0,0.0,83,0.00,,,0.00,meteohub,2015-08-30 06:46:00,
2015-08-30 01:51:00,75.9,70.3,30.03,SSW,206,0.0,0.0,83,0.00,,,0.00,meteohub,2015-08-30 06:51:00,
2015-08-30 01:56:00,75.7,70.5,30.03,SSW,206,0.0,0.0,84,0.00,,,0.00,meteohub,2015-08-30 06:56:00,
2015-08-30 02:01:00,75.6,70.3,30.03,SSW,206,0.0,0.0,84,0.00,,,0.00,meteohub,2015-08-30 07:01:00,
2015-08-30 02:05:00,75.4,70.5,30.03,SSW,206,0.0,0.0,85,0.00,,,0.00,meteohub,2015-08-30 07:05:00,
2015-08-30 02:06:00,75.4,70.5,30.03,SSW,206,0.0,0.0,85,0.00,,,0.00,meteohub,2015-08-30 07:06:00,
2015-08-30 02:11:00,75.0,70.2,30.03,SSW,206,0.0,0.0,85,0.00,,,0.00,meteohub,2015-08-30 07:11:00,
2015-08-30 02:16:00,74.7,70.2,30.02,SSW,206,3.0,4.0,86,0.00,,,0.00,meteohub,2015-08-30 07:16:00,
2015-08-30 02:21:00,74.3,70.2,30.02,SSW,207,3.0,5.0,87,0.00,,,0.00,meteohub,2015-08-30 07:21:00,
2015-08-30 02:26:00,73.9,69.8,30.02,SSW,207,2.0,5.0,87,0.00,,,0.00,meteohub,2015-08-30 07:26:00,
2015-08-30 02:31:00,73.8,70.0,30.02,SSW,207,0.0,5.0,88,0.00,,,0.00,meteohub,2015-08-30 07:31:00,
2015-08-30 02:36:00,73.6,69.8,30.02,SSW,207,0.0,4.0,88,0.00,,,0.00,meteohub,2015-08-30 07:36:00,
2015-08-30 02:41:00,73.6,70.2,30.02,SSW,207,3.0,4.0,89,0.00,,,0.00,meteohub,2015-08-30 07:41:00,
2015-08-30 02:46:00,73.6,70.2,30.02,SSW,207,4.0,4.0,89,0.00,,,0.00,meteohub,2015-08-30 07:46:00,
2015-08-30 02:51:00,73.4,70.0,30.02,SSW,207,0.0,4.0,89,0.00,,,0.00,meteohub,2015-08-30 07:51:00,
2015-08-30 02:56:00,73.4,70.3,30.02,SSW,207,1.0,4.0,90,0.00,,,0.00,meteohub,2015-08-30 07:56:00,
2015-08-30 03:01:00,73.8,70.7,30.02,SSW,207,2.0,5.0,90,0.00,,,0.00,meteohub,2015-08-30 08:01:00,
2015-08-30 03:06:00,74.1,70.7,30.02,SSW,207,2.0,5.0,89,0.00,,,0.00,meteohub,2015-08-30 08:06:00,
2015-08-30 03:11:00,74.1,70.7,30.02,SSW,207,2.0,5.0,89,0.00,,,0.00,meteohub,2015-08-30 08:11:00,
2015-08-30 03:16:00,74.1,70.7,30.02,SSW,207,3.0,4.0,89,0.00,,,0.00,meteohub,2015-08-30 08:16:00,
2015-08-30 03:21:00,74.1,70.7,30.02,SSW,207,2.0,4.0,89,0.00,,,0.00,meteohub,2015-08-30 08:21:00,
2015-08-30 03:26:00,73.9,70.5,30.01,SSW,207,0.0,4.0,89,0.00,,,0.00,meteohub,2015-08-30 08:26:00,
2015-08-30 03:31:00,73.8,70.3,30.02,SSW,207,0.0,4.0,89,0.00,,,0.00,meteohub,2015-08-30 08:31:00,
2015-08-30 03:36:00,73.8,70.3,30.02,SSW,207,0.0,3.0,89,0.00,,,0.00,meteohub,2015-08-30 08:36:00,
2015-08-30 03:41:00,73.6,70.2,30.02,SSW,207,0.0,0.0,89,0.00,,,0.00,meteohub,2015-08-30 08:41:00,